createdAt,value
2022-10-10T00:04:44.610Z,9.30
2022-10-10T00:09:47.015Z,6.80
2022-10-10T00:14:48.544Z,8.73
2022-10-10T00:19:50.187Z,8.57
2022-10-10T00:24:51.775Z,6.82
2022-10-10T00:29:53.564Z,9.32
2022-10-10T00:34:55.109Z,10.13
2022-10-10T00:39:56.652Z,10.20
2022-10-10T00:45:29.311Z,9.88
2022-10-10T00:50:33.227Z,9.38
2022-10-10T00:55:35.697Z,9.45
2022-10-10T01:00:37.412Z,8.27
2022-10-10T01:05:41.339Z,9.82
2022-10-10T01:10:54.342Z,7.75
2022-10-10T01:16:34.146Z,9.60
2022-10-10T01:21:56.800Z,9.52
2022-10-10T01:27:08.779Z,7.97
2022-10-10T01:32:19.675Z,9.50
2022-10-10T01:37:31.708Z,11.15
2022-10-10T01:43:01.607Z,9.48
2022-10-10T01:48:07.121Z,7.80
2022-10-10T01:53:23.607Z,7.65
2022-10-10T01:58:34.350Z,9.57
2022-10-10T02:03:44.867Z,10.70
2022-10-10T02:09:03.414Z,9.10
2022-10-10T02:14:17.335Z,10.15
2022-10-10T02:19:21.463Z,13.57
2022-10-10T02:24:24.772Z,9.52
2022-10-10T02:29:32.321Z,11.73
2022-10-10T02:34:45.494Z,8.27
2022-10-10T02:39:58.367Z,8.32
2022-10-10T02:45:00.289Z,9.02
2022-10-10T02:50:01.861Z,10.80
2022-10-10T02:55:03.722Z,7.75
2022-10-10T03:00:06.568Z,11.13
2022-10-10T03:05:08.819Z,10.10
2022-10-10T03:10:10.542Z,8.15
2022-10-10T03:15:12.344Z,8.32
2022-10-10T03:20:13.990Z,10.57
2022-10-10T03:25:15.525Z,7.97
2022-10-10T03:30:17.089Z,9.38
2022-10-10T03:35:18.606Z,10.10
2022-10-10T03:40:20.139Z,8.95
2022-10-10T03:45:21.715Z,8.40
2022-10-10T03:50:23.250Z,10.57
2022-10-10T03:55:24.820Z,14.60
2022-10-10T04:00:26.535Z,9.82
2022-10-10T04:05:28.040Z,10.07
2022-10-10T04:10:29.595Z,10.80
2022-10-10T04:15:32.569Z,8.07
2022-10-10T04:20:34.150Z,14.57
2022-10-10T04:25:35.666Z,13.65
2022-10-10T04:30:37.215Z,10.10
2022-10-10T04:35:39.346Z,14.00
2022-10-10T04:40:40.901Z,11.32
2022-10-10T04:45:42.449Z,13.25
2022-10-10T04:50:44.001Z,16.77
2022-10-10T04:55:45.798Z,10.38
2022-10-10T05:00:51.866Z,9.45
2022-10-10T05:05:53.432Z,14.25
2022-10-10T05:10:55.367Z,10.55
2022-10-10T05:15:57.192Z,13.02
2022-10-10T05:21:03.400Z,10.77
2022-10-10T05:26:05.494Z,12.60
2022-10-10T05:31:07.516Z,13.77
2022-10-10T05:36:11.962Z,14.18
2022-10-10T05:41:13.560Z,16.60
2022-10-10T05:46:15.172Z,18.98
2022-10-10T05:51:16.690Z,14.68
2022-10-10T05:56:18.192Z,11.80
2022-10-10T06:01:19.728Z,14.82
2022-10-10T06:06:22.601Z,11.70
2022-10-10T06:11:25.908Z,20.73
2022-10-10T06:16:28.050Z,13.90
2022-10-10T06:21:29.883Z,10.93
2022-10-10T06:26:31.421Z,13.07
2022-10-10T06:31:32.979Z,12.98
2022-10-10T06:36:34.786Z,12.90
2022-10-10T06:41:36.332Z,11.45
2022-10-10T06:46:37.876Z,13.68
2022-10-10T06:51:40.155Z,12.35
2022-10-10T06:56:41.835Z,13.98
2022-10-10T07:01:43.468Z,10.38
2022-10-10T07:06:45.044Z,13.57
2022-10-10T07:11:46.727Z,14.98
2022-10-10T07:16:48.311Z,11.48
2022-10-10T07:21:50.667Z,12.95
2022-10-10T07:27:02.313Z,14.60
2022-10-10T07:32:06.541Z,16.58
2022-10-10T07:37:08.086Z,14.35
2022-10-10T07:42:09.638Z,15.02
2022-10-10T07:47:11.263Z,16.98
2022-10-10T07:52:12.842Z,18.15
2022-10-10T07:57:14.344Z,15.90
2022-10-10T08:02:16.585Z,15.25
2022-10-10T08:07:19.557Z,14.25
2022-10-10T08:12:21.339Z,14.38
2022-10-10T08:17:22.887Z,11.80
2022-10-10T08:22:24.422Z,13.90
2022-10-10T08:27:26.047Z,15.85
2022-10-10T08:32:27.592Z,17.38
2022-10-10T08:37:32.750Z,13.93
2022-10-10T08:42:50.268Z,14.05
2022-10-10T08:47:58.142Z,12.98
2022-10-10T08:53:20.346Z,12.98
2022-10-10T08:58:31.574Z,15.55
2022-10-10T09:03:45.290Z,13.30
2022-10-10T09:08:54.819Z,15.63
2022-10-10T09:14:08.437Z,10.98
2022-10-10T09:19:24.939Z,16.65
2022-10-10T09:24:52.184Z,15.38
2022-10-10T09:30:17.898Z,13.47
2022-10-10T09:35:24.685Z,13.18
2022-10-10T09:40:37.701Z,16.20
2022-10-10T09:45:44.408Z,14.57
2022-10-10T09:50:45.961Z,14.17
2022-10-10T09:55:49.605Z,19.40
2022-10-10T10:00:53.608Z,18.25
2022-10-10T10:05:59.133Z,19.55
2022-10-10T10:11:01.781Z,19.83
2022-10-10T10:16:08.922Z,16.50
2022-10-10T10:21:16.167Z,15.50
2022-10-10T10:26:20.742Z,24.48
2022-10-10T10:31:35.508Z,20.15
2022-10-10T10:36:51.338Z,19.02
2022-10-10T10:42:47.155Z,20.55
2022-10-10T10:48:07.991Z,19.25
2022-10-10T10:53:18.843Z,20.08
2022-10-10T11:05:16.323Z,23.08
2022-10-10T11:09:49.632Z,19.65
2022-10-10T11:15:03.320Z,16.67
2022-10-10T11:20:29.243Z,27.77
2022-10-10T11:25:42.578Z,27.13
2022-10-10T11:30:50.340Z,15.55
2022-10-10T11:36:01.396Z,19.98
2022-10-10T11:41:22.973Z,22.25
2022-10-10T11:46:36.311Z,20.98
2022-10-10T11:52:09.458Z,17.35
2022-10-10T11:57:33.992Z,18.55
2022-10-10T12:02:37.914Z,16.65
2022-10-10T12:07:51.268Z,12.48
2022-10-10T12:12:58.088Z,6.43
2022-10-10T12:17:59.811Z,6.68
2022-10-10T12:23:26.271Z,4.03
2022-10-10T12:28:35.345Z,2.33
2022-10-10T12:33:36.936Z,3.72
2022-10-10T12:38:38.462Z,4.65
2022-10-10T12:43:52.328Z,7.25
2022-10-10T12:49:17.917Z,8.38
2022-10-10T12:54:25.051Z,12.98
2022-10-10T12:59:26.732Z,13.13
2022-10-10T13:04:28.861Z,7.10
2022-10-10T13:09:35.739Z,8.60
2022-10-10T13:14:43.287Z,12.48
2022-10-10T13:19:44.866Z,12.23
2022-10-10T13:24:48.093Z,12.13
2022-10-10T13:29:50.903Z,16.88
2022-10-10T13:34:58.211Z,12.15
2022-10-10T13:40:00.928Z,15.63
2022-10-10T13:45:26.554Z,18.33
2022-10-10T13:50:53.403Z,20.23
2022-10-10T13:56:06.648Z,15.55
2022-10-10T14:01:29.517Z,17.80
2022-10-10T14:06:32.128Z,21.98
2022-10-10T14:11:34.904Z,22.35
2022-10-10T14:16:36.498Z,17.48
2022-10-10T14:21:38.087Z,17.80
2022-10-10T14:26:39.617Z,18.60
2022-10-10T14:31:42.152Z,21.73
2022-10-10T14:36:48.751Z,22.05
2022-10-10T14:41:50.331Z,13.47
2022-10-10T14:46:52.120Z,17.25
2022-10-10T14:51:53.695Z,14.45
2022-10-10T14:57:08.299Z,11.38
2022-10-10T15:02:11.539Z,15.75
2022-10-10T15:07:14.990Z,15.10
2022-10-10T15:12:16.884Z,16.50
2022-10-10T15:17:18.545Z,21.77
2022-10-10T15:22:20.108Z,14.82
2022-10-10T15:27:21.664Z,21.25
2022-10-10T15:32:23.215Z,13.10
2022-10-10T15:37:26.565Z,17.15
2022-10-10T15:42:28.267Z,20.63
2022-10-10T15:47:29.919Z,20.67
2022-10-10T15:52:31.424Z,17.05
2022-10-10T15:57:33.148Z,14.98
2022-10-10T16:02:34.765Z,15.85
2022-10-10T16:07:46.596Z,17.90
2022-10-10T16:12:49.724Z,20.13
2022-10-10T16:17:51.227Z,21.05
2022-10-10T16:22:54.095Z,15.52
2022-10-10T16:27:55.676Z,15.65
2022-10-10T16:32:59.125Z,14.90
2022-10-10T16:38:00.674Z,19.60
2022-10-10T16:43:02.850Z,16.55
2022-10-10T16:48:04.381Z,15.35
2022-10-10T16:53:06.427Z,14.77
2022-10-10T16:58:09.307Z,18.27
2022-10-10T17:03:10.765Z,20.45
2022-10-10T17:08:12.325Z,18.48
2022-10-10T17:13:13.836Z,17.48
2022-10-10T17:18:17.360Z,20.13
2022-10-10T17:23:19.395Z,18.63
2022-10-10T17:28:20.973Z,14.93
2022-10-10T17:33:23.433Z,16.50
2022-10-10T17:38:39.083Z,25.85
2022-10-10T17:43:41.839Z,18.40
2022-10-10T17:48:43.502Z,19.23
2022-10-10T17:53:44.992Z,19.33
2022-10-10T17:58:47.061Z,16.27
2022-10-10T18:03:48.770Z,18.13
2022-10-10T18:08:51.820Z,27.90
2022-10-10T18:13:54.376Z,21.55
2022-10-10T18:18:55.896Z,21.60
2022-10-10T18:23:58.214Z,17.33
2022-10-10T18:28:59.664Z,22.25
2022-10-10T18:34:02.628Z,18.67
2022-10-10T18:39:08.754Z,16.42
2022-10-10T18:44:16.813Z,25.42
2022-10-10T18:49:18.875Z,22.58
2022-10-10T18:54:20.433Z,26.65
2022-10-10T18:59:22.169Z,23.08
2022-10-10T19:04:23.816Z,28.45
2022-10-10T19:09:25.878Z,26.98
2022-10-10T19:14:27.547Z,24.13
2022-10-10T19:19:29.059Z,20.00
2022-10-10T19:24:30.504Z,19.52
2022-10-10T19:29:32.249Z,22.90
2022-10-10T19:34:33.749Z,24.63
2022-10-10T19:39:35.236Z,22.08
2022-10-10T19:44:36.843Z,31.75
2022-10-10T19:49:38.397Z,34.97
2022-10-10T19:54:39.912Z,28.88
2022-10-10T19:59:41.400Z,23.08
2022-10-10T20:04:42.861Z,22.75
2022-10-10T20:09:44.358Z,17.20
2022-10-10T20:14:45.811Z,23.63
2022-10-10T20:19:47.409Z,25.80
2022-10-10T20:24:48.986Z,21.40
2022-10-10T20:29:50.510Z,20.15
2022-10-10T20:34:52.081Z,24.40
2022-10-10T20:39:53.522Z,17.30
2022-10-10T20:44:55.059Z,22.33
2022-10-10T20:49:56.717Z,18.77
2022-10-10T20:54:58.190Z,16.83
2022-10-10T20:59:59.642Z,29.48
2022-10-10T21:05:01.199Z,20.58
2022-10-10T21:10:02.747Z,24.65
2022-10-10T21:15:04.498Z,18.60
2022-10-10T21:20:06.383Z,17.85
2022-10-10T21:25:08.204Z,24.58
2022-10-10T21:30:10.002Z,21.95
2022-10-10T21:35:11.446Z,22.13
2022-10-10T21:40:12.952Z,22.70
2022-10-10T21:45:14.566Z,30.90
2022-10-10T21:50:16.125Z,27.27
2022-10-10T21:55:17.592Z,20.17
2022-10-10T22:00:19.802Z,17.02
2022-10-10T22:05:21.283Z,18.42
2022-10-10T22:10:22.775Z,21.77
2022-10-10T22:15:24.304Z,16.73
2022-10-10T22:20:26.039Z,17.33
2022-10-10T22:25:27.631Z,13.27
2022-10-10T22:30:29.102Z,14.55
2022-10-10T22:35:31.096Z,16.98
2022-10-10T22:40:32.687Z,13.98
2022-10-10T22:45:34.391Z,13.57
2022-10-10T22:50:35.877Z,12.48
2022-10-10T22:55:37.360Z,17.88
2022-10-10T23:00:40.508Z,14.68
2022-10-10T23:05:44.235Z,18.83
2022-10-10T23:10:47.246Z,15.40
2022-10-10T23:15:48.733Z,12.60
2022-10-10T23:20:50.705Z,17.40
2022-10-10T23:25:52.154Z,11.23
2022-10-10T23:30:53.643Z,13.25
2022-10-10T23:36:03.010Z,12.07
2022-10-10T23:41:05.595Z,15.32
2022-10-10T23:46:07.962Z,10.98
2022-10-10T23:51:09.843Z,9.80
2022-10-10T23:56:11.629Z,10.30
